Homer Airport Homer US
ICAO: PAHO
IATA:
Category: Medium
Scheduled Services:

Elevation: 84 ft
TransAlt. 18000 ft.

Airport Communications:
ASOS:135.65
ANCHORAGE CNTR:125.9
CTAF:123.6
RDO:123.6
TWEB:114.6
KENAI RDO:123.6
UNICOM:123.05

PAHO Zoom In..

If you have problems with the map follow the link
https://www.worldairports.se/pages/airport.php?
ICAO=PAHO

Runways:

(A) RW 04 length 6701 ft width 150 ft
LOC 109.30 / hdg 38

(B) RW 22 length 6701 ft width 150 ft
LOC 109.30 / hdg 218

Location; PAHO
Day. 12 / Time. 07.53 Zulu
* Altimeter: 29.13
* Temperature: 07° c. 44.6°f.
* Wind from: 070° Speed 06 kn.
Dewpoint: 02° c.
Visibility: 10 Statute Miles.
Clouds: Broken 6000 ft.
Clouds: Broken 8500 ft.
Clouds: Broken 11000 ft.

PAHO 120753Z AUTO 07006KT 10SM BKN060 BKN085 BKN110 07/02 A2913 RMK AO2 SLP863 T00670022 TSNO


Wind From 070°
Speed 06 kn.

 
 
jpsmedia worldairports.se 2019   terms of use